Cinderella 1 — SBLK — position and weather

sailwx.info

Track history (hours):
 
Tides and Currents Weather Stations Pressure Air Temp Water Temp Dewpoint Dewpoint Depression Visibility Wind Speed Wind Dir Waves Ship Positions

Cinderella 1

Last reported at 2015-May-23 08:10 UTC. Time now 2015-May-23 11:52 UTC.
Position N 59°19' E 018°07'.

Length 42 m; draft 1.1 m.

Type: Passenger vessel. MMSI: 265524530.

Date/timePositionNaut miles runAvg speedWind from/ knotsBaromVisibWave heightAir tempDewpointWater temp
2015-May-23 08:10N 59°19' E 018°07'1 2.2
2015-May-23 07:33N 59°20' E 018°05'0 0.0
2015-May-23 06:33N 59°20' E 018°05'0 0.0
2015-May-23 05:33N 59°20' E 018°05'0 0.0
2015-May-23 04:33N 59°20' E 018°05'0 0.0
2015-May-23 03:33N 59°20' E 018°05'0 0.0
2015-May-23 02:33N 59°20' E 018°05'0 0.0
2015-May-23 01:33N 59°20' E 018°05'0 0.0
2015-May-23 00:33N 59°20' E 018°05'0 0.0
2015-May-22 23:33N 59°20' E 018°05'0 0.0
2015-May-22 22:33N 59°20' E 018°05'0 0.0
2015-May-22 21:33N 59°20' E 018°05'0 0.0
2015-May-22 20:33N 59°20' E 018°05'0 0.1
2015-May-22 15:33N 59°20' E 018°05'7 5.9
2015-May-22 14:23N 59°23' E 018°18'7 1.6
2015-May-22 10:10N 59°19' E 018°07'1 2.1
2015-May-22 09:33N 59°20' E 018°05'0 0.0
2015-May-22 07:29N 59°20' E 018°05'0 0.0
2015-May-22 05:33N 59°20' E 018°05'0 0.0
2015-May-22 04:33N 59°20' E 018°05'0 0.0
2015-May-22 03:33N 59°20' E 018°05'0 0.0
2015-May-22 02:24N 59°20' E 018°05'0 0.0
2015-May-22 01:32N 59°20' E 018°05'0 0.0
2015-May-22 00:32N 59°20' E 018°05'0 0.0
2015-May-21 23:33N 59°20' E 018°05'0 0.0
2015-May-21 22:33N 59°20' E 018°05'0 0.0
2015-May-21 21:33N 59°20' E 018°05'0 0.0
2015-May-21 20:33N 59°20' E 018°05'7 6.0
2015-May-21 19:18N 59°23' E 018°18'7 1.9
2015-May-21 15:34N 59°20' E 018°05'7 5.9
2015-May-21 14:22N 59°23' E 018°18'7 1.6
2015-May-21 10:10N 59°19' E 018°07'1 2.2
2015-May-21 09:33N 59°20' E 018°05'0 0.0
2015-May-21 07:33N 59°20' E 018°05'0 0.0
2015-May-21 04:08N 59°20' E 018°05'0 0.0
2015-May-21 03:27N 59°20' E 018°05'0 0.0
2015-May-21 02:09N 59°20' E 018°05'0 0.0
2015-May-21 01:28N 59°20' E 018°05'0 0.0
2015-May-21 00:25N 59°20' E 018°05'0 0.0
2015-May-20 23:32N 59°20' E 018°05'0 0.0
2015-May-20 22:20N 59°20' E 018°05'0 0.0
2015-May-20 21:21N 59°20' E 018°05'0 0.0
2015-May-20 20:33N 59°20' E 018°05'7 5.9
2015-May-20 19:22N 59°23' E 018°17'7 1.8
2015-May-20 15:33N 59°20' E 018°05'7 6.3
2015-May-20 14:25N 59°23' E 018°18'7 1.6
2015-May-20 10:09N 59°19' E 018°06'1 2.0
2015-May-20 09:33N 59°20' E 018°05'0 0.0
2015-May-20 08:33N 59°20' E 018°05'0 0.0
2015-May-20 07:33N 59°20' E 018°05'0 0.0
2015-May-20 06:34N 59°20' E 018°05'0 0.0
2015-May-20 05:33N 59°20' E 018°05'0 0.0
2015-May-20 04:34N 59°20' E 018°05'0 0.0
2015-May-20 03:34N 59°20' E 018°05'0 0.0
2015-May-20 02:34N 59°20' E 018°05'0 0.0
2015-May-20 01:34N 59°20' E 018°05'0 0.0
2015-May-20 00:33N 59°20' E 018°05'0 0.0
2015-May-19 23:33N 59°20' E 018°05'0 0.0
2015-May-19 22:34N 59°20' E 018°05'0 0.0
2015-May-19 21:34N 59°20' E 018°05'0 0.0
2015-May-19 20:33N 59°20' E 018°05'7 6.1
2015-May-19 19:20N 59°23' E 018°18'7 2.0
2015-May-19 15:33N 59°20' E 018°05'7 6.2
2015-May-19 14:27N 59°23' E 018°18'7 1.5
2015-May-19 10:11N 59°19' E 018°07'1 2.0
2015-May-19 09:31N 59°20' E 018°05'0 0.0
2015-May-19 08:33N 59°20' E 018°05'0 0.0
2015-May-19 07:34N 59°20' E 018°05'0 0.0
2015-May-19 06:33N 59°20' E 018°05'0 0.0
2015-May-19 05:34N 59°20' E 018°05'0 0.0
2015-May-19 04:33N 59°20' E 018°05'0 0.0
2015-May-19 03:34N 59°20' E 018°05'0 0.0
2015-May-19 02:33N 59°20' E 018°05'0 0.0
2015-May-19 01:34N 59°20' E 018°05'0 0.0
2015-May-19 00:33N 59°20' E 018°05'0 0.0
2015-May-18 23:34N 59°20' E 018°05'0 0.0
2015-May-18 22:33N 59°20' E 018°05'0 0.0
2015-May-18 21:33N 59°20' E 018°05'0 0.0
2015-May-18 20:33N 59°20' E 018°05'3 3.4
2015-May-18 19:33N 59°20' E 018°11'3 0.8
2015-May-18 15:33N 59°20' E 018°05'7 6.3
2015-May-18 14:25N 59°23' E 018°18'7 1.6
2015-May-18 10:10N 59°19' E 018°07'1 2.3
2015-May-18 09:33N 59°20' E 018°05'0 0.0
2015-May-18 08:29N 59°20' E 018°05'0 0.0
2015-May-18 07:33N 59°20' E 018°05'0 0.0
2015-May-18 06:33N 59°20' E 018°05'0 0.0
2015-May-18 05:31N 59°20' E 018°05'0 0.0
2015-May-18 04:28N 59°20' E 018°05'0 0.0
2015-May-18 03:28N 59°20' E 018°05'0 0.0
2015-May-18 02:32N 59°20' E 018°05'0 0.0
2015-May-18 01:24N 59°20' E 018°05'0 0.0
2015-May-18 00:32N 59°20' E 018°05'0 0.0
2015-May-17 23:31N 59°20' E 018°05'0 0.0
2015-May-17 22:19N 59°20' E 018°05'0 0.0
2015-May-17 21:33N 59°20' E 018°05'0 0.0
2015-May-17 20:17N 59°20' E 018°05'0 0.0
2015-May-17 19:28N 59°20' E 018°05'7 7.5
2015-May-17 18:30N 59°23' E 018°18'7 1.5
2015-May-17 14:09N 59°19' E 018°07'1 1.2
2015-May-17 13:33N 59°19' E 018°06'0 0.1
2015-May-17 08:09N 59°19' E 018°06'1 2.0
2015-May-17 07:32N 59°20' E 018°05'0 0.0
2015-May-16 19:19N 59°20' E 018°05'7 9.7
2015-May-16 18:33N 59°23' E 018°18'7 1.6
2015-May-16 14:07N 59°19' E 018°06'0 0.1
2015-May-16 08:09N 59°19' E 018°07'1 1.9
2015-May-16 07:30N 59°20' E 018°05'0 0.0
2015-May-16 06:33N 59°20' E 018°05'0 0.0
2015-May-16 05:24N 59°20' E 018°05'0 0.0
2015-May-16 04:32N 59°20' E 018°05'0 0.0
2015-May-16 03:18N 59°20' E 018°05'0 0.0
2015-May-16 02:31N 59°20' E 018°05'0 0.0
2015-May-16 01:30N 59°20' E 018°05'0 0.0
2015-May-16 00:24N 59°20' E 018°05'0 0.0
2015-May-15 23:23N 59°20' E 018°05'0 0.0
2015-May-15 20:31N 59°20' E 018°05'0 0.1
2015-May-15 15:33N 59°20' E 018°05'7 6.8
2015-May-15 14:28N 59°23' E 018°18'7 1.6
2015-May-15 10:10N 59°19' E 018°07'1 2.1
2015-May-15 09:31N 59°20' E 018°05'0 0.0
2015-May-15 08:30N 59°20' E 018°05'0 0.0
2015-May-15 07:33N 59°20' E 018°05'0 0.0
2015-May-15 06:32N 59°20' E 018°05'0 0.0
2015-May-15 05:33N 59°20' E 018°05'0 0.0
2015-May-15 04:29N 59°20' E 018°05'0 0.0
2015-May-15 03:33N 59°20' E 018°05'0 0.0
2015-May-15 02:33N 59°20' E 018°05'0 0.0
2015-May-15 01:33N 59°20' E 018°05'0 0.0
2015-May-15 00:33N 59°20' E 018°05'0 0.0
2015-May-14 23:33N 59°20' E 018°05'0 0.0
2015-May-14 22:33N 59°20' E 018°05'0 0.0
2015-May-14 21:33N 59°20' E 018°05'0 0.0
2015-May-14 20:33N 59°20' E 018°05'0 0.0
2015-May-14 19:33N 59°20' E 018°05'7 6.9
2015-May-14 18:29N 59°23' E 018°18'7 1.6
2015-May-14 14:08N 59°19' E 018°07'1 1.9
2015-May-14 13:33N 59°20' E 018°05'1 0.2
2015-May-14 08:08N 59°19' E 018°07'1 2.2
2015-May-14 07:33N 59°20' E 018°05'0 0.0
2015-May-14 06:33N 59°20' E 018°05'0 0.0
2015-May-14 05:33N 59°20' E 018°05'0 0.0
2015-May-14 04:33N 59°20' E 018°05'0 0.0
2015-May-14 03:33N 59°20' E 018°05'0 0.0
2015-May-14 02:32N 59°20' E 018°05'0 0.0
2015-May-14 01:33N 59°20' E 018°05'0 0.0
2015-May-14 00:32N 59°20' E 018°05'0 0.0
2015-May-13 23:33N 59°20' E 018°05'0 0.0
2015-May-13 22:33N 59°20' E 018°05'0 0.0
2015-May-13 21:33N 59°20' E 018°05'0 0.0
2015-May-13 20:33N 59°20' E 018°05'0 0.1
2015-May-13 15:33N 59°20' E 018°05'7 6.2
2015-May-13 14:29N 59°22' E 018°17'6 1.4
2015-May-13 10:08N 59°19' E 018°07'1 2.3
2015-May-13 09:33N 59°20' E 018°05'0 0.0
2015-May-13 08:30N 59°20' E 018°05'  
Track history (hours):
 
Tides and Currents Weather Stations Pressure Air Temp Water Temp Dewpoint Dewpoint Depression Visibility Wind Speed Wind Dir Waves Ship Positions

Cinderella 1

Last reported at 2015-May-23 08:10 UTC. Time now 2015-May-23 11:52 UTC.
Position N 59°19' E 018°07'.

Length 42 m; draft 1.1 m.

Type: Passenger vessel. MMSI: 265524530.

Date/timePositionNaut miles runAvg speedWind from/ knotsBaromVisibWave heightAir tempDewpointWater temp
2015-May-23 08:10N 59°19' E 018°07'1 2.2
2015-May-23 07:33N 59°20' E 018°05'0 0.0
2015-May-23 06:33N 59°20' E 018°05'0 0.0
2015-May-23 05:33N 59°20' E 018°05'0 0.0
2015-May-23 04:33N 59°20' E 018°05'0 0.0
2015-May-23 03:33N 59°20' E 018°05'0 0.0
2015-May-23 02:33N 59°20' E 018°05'0 0.0
2015-May-23 01:33N 59°20' E 018°05'0 0.0
2015-May-23 00:33N 59°20' E 018°05'0 0.0
2015-May-22 23:33N 59°20' E 018°05'0 0.0
2015-May-22 22:33N 59°20' E 018°05'0 0.0
2015-May-22 21:33N 59°20' E 018°05'0 0.0
2015-May-22 20:33N 59°20' E 018°05'0 0.1
2015-May-22 15:33N 59°20' E 018°05'7 5.9
2015-May-22 14:23N 59°23' E 018°18'7 1.6
2015-May-22 10:10N 59°19' E 018°07'1 2.1
2015-May-22 09:33N 59°20' E 018°05'0 0.0
2015-May-22 07:29N 59°20' E 018°05'0 0.0
2015-May-22 05:33N 59°20' E 018°05'0 0.0
2015-May-22 04:33N 59°20' E 018°05'0 0.0
2015-May-22 03:33N 59°20' E 018°05'0 0.0
2015-May-22 02:24N 59°20' E 018°05'0 0.0
2015-May-22 01:32N 59°20' E 018°05'0 0.0
2015-May-22 00:32N 59°20' E 018°05'0 0.0
2015-May-21 23:33N 59°20' E 018°05'0 0.0
2015-May-21 22:33N 59°20' E 018°05'0 0.0
2015-May-21 21:33N 59°20' E 018°05'0 0.0
2015-May-21 20:33N 59°20' E 018°05'7 6.0
2015-May-21 19:18N 59°23' E 018°18'7 1.9
2015-May-21 15:34N 59°20' E 018°05'7 5.9
2015-May-21 14:22N 59°23' E 018°18'7 1.6
2015-May-21 10:10N 59°19' E 018°07'1 2.2
2015-May-21 09:33N 59°20' E 018°05'0 0.0
2015-May-21 07:33N 59°20' E 018°05'0 0.0
2015-May-21 04:08N 59°20' E 018°05'0 0.0
2015-May-21 03:27N 59°20' E 018°05'0 0.0
2015-May-21 02:09N 59°20' E 018°05'0 0.0
2015-May-21 01:28N 59°20' E 018°05'0 0.0
2015-May-21 00:25N 59°20' E 018°05'0 0.0
2015-May-20 23:32N 59°20' E 018°05'0 0.0
2015-May-20 22:20N 59°20' E 018°05'0 0.0
2015-May-20 21:21N 59°20' E 018°05'0 0.0
2015-May-20 20:33N 59°20' E 018°05'7 5.9
2015-May-20 19:22N 59°23' E 018°17'7 1.8
2015-May-20 15:33N 59°20' E 018°05'7 6.3
2015-May-20 14:25N 59°23' E 018°18'7 1.6
2015-May-20 10:09N 59°19' E 018°06'1 2.0
2015-May-20 09:33N 59°20' E 018°05'0 0.0
2015-May-20 08:33N 59°20' E 018°05'0 0.0
2015-May-20 07:33N 59°20' E 018°05'0 0.0
2015-May-20 06:34N 59°20' E 018°05'0 0.0
2015-May-20 05:33N 59°20' E 018°05'0 0.0
2015-May-20 04:34N 59°20' E 018°05'0 0.0
2015-May-20 03:34N 59°20' E 018°05'0 0.0
2015-May-20 02:34N 59°20' E 018°05'0 0.0
2015-May-20 01:34N 59°20' E 018°05'0 0.0
2015-May-20 00:33N 59°20' E 018°05'0 0.0
2015-May-19 23:33N 59°20' E 018°05'0 0.0
2015-May-19 22:34N 59°20' E 018°05'0 0.0
2015-May-19 21:34N 59°20' E 018°05'0 0.0
2015-May-19 20:33N 59°20' E 018°05'7 6.1
2015-May-19 19:20N 59°23' E 018°18'7 2.0
2015-May-19 15:33N 59°20' E 018°05'7 6.2
2015-May-19 14:27N 59°23' E 018°18'7 1.5
2015-May-19 10:11N 59°19' E 018°07'1 2.0
2015-May-19 09:31N 59°20' E 018°05'0 0.0
2015-May-19 08:33N 59°20' E 018°05'0 0.0
2015-May-19 07:34N 59°20' E 018°05'0 0.0
2015-May-19 06:33N 59°20' E 018°05'0 0.0
2015-May-19 05:34N 59°20' E 018°05'0 0.0
2015-May-19 04:33N 59°20' E 018°05'0 0.0
2015-May-19 03:34N 59°20' E 018°05'0 0.0
2015-May-19 02:33N 59°20' E 018°05'0 0.0
2015-May-19 01:34N 59°20' E 018°05'0 0.0
2015-May-19 00:33N 59°20' E 018°05'0 0.0
2015-May-18 23:34N 59°20' E 018°05'0 0.0
2015-May-18 22:33N 59°20' E 018°05'0 0.0
2015-May-18 21:33N 59°20' E 018°05'0 0.0
2015-May-18 20:33N 59°20' E 018°05'3 3.4
2015-May-18 19:33N 59°20' E 018°11'3 0.8
2015-May-18 15:33N 59°20' E 018°05'7 6.3
2015-May-18 14:25N 59°23' E 018°18'7 1.6
2015-May-18 10:10N 59°19' E 018°07'1 2.3
2015-May-18 09:33N 59°20' E 018°05'0 0.0
2015-May-18 08:29N 59°20' E 018°05'0 0.0
2015-May-18 07:33N 59°20' E 018°05'0 0.0
2015-May-18 06:33N 59°20' E 018°05'0 0.0
2015-May-18 05:31N 59°20' E 018°05'0 0.0
2015-May-18 04:28N 59°20' E 018°05'0 0.0
2015-May-18 03:28N 59°20' E 018°05'0 0.0
2015-May-18 02:32N 59°20' E 018°05'0 0.0
2015-May-18 01:24N 59°20' E 018°05'0 0.0
2015-May-18 00:32N 59°20' E 018°05'0 0.0
2015-May-17 23:31N 59°20' E 018°05'0 0.0
2015-May-17 22:19N 59°20' E 018°05'0 0.0
2015-May-17 21:33N 59°20' E 018°05'0 0.0
2015-May-17 20:17N 59°20' E 018°05'0 0.0
2015-May-17 19:28N 59°20' E 018°05'7 7.5
2015-May-17 18:30N 59°23' E 018°18'7 1.5
2015-May-17 14:09N 59°19' E 018°07'1 1.2
2015-May-17 13:33N 59°19' E 018°06'0 0.1
2015-May-17 08:09N 59°19' E 018°06'1 2.0
2015-May-17 07:32N 59°20' E 018°05'0 0.0
2015-May-16 19:19N 59°20' E 018°05'7 9.7
2015-May-16 18:33N 59°23' E 018°18'7 1.6
2015-May-16 14:07N 59°19' E 018°06'0 0.1
2015-May-16 08:09N 59°19' E 018°07'1 1.9
2015-May-16 07:30N 59°20' E 018°05'0 0.0
2015-May-16 06:33N 59°20' E 018°05'0 0.0
2015-May-16 05:24N 59°20' E 018°05'0 0.0
2015-May-16 04:32N 59°20' E 018°05'0 0.0
2015-May-16 03:18N 59°20' E 018°05'0 0.0
2015-May-16 02:31N 59°20' E 018°05'0 0.0
2015-May-16 01:30N 59°20' E 018°05'0 0.0
2015-May-16 00:24N 59°20' E 018°05'0 0.0
2015-May-15 23:23N 59°20' E 018°05'0 0.0
2015-May-15 20:31N 59°20' E 018°05'0 0.1
2015-May-15 15:33N 59°20' E 018°05'7 6.8
2015-May-15 14:28N 59°23' E 018°18'7 1.6
2015-May-15 10:10N 59°19' E 018°07'1 2.1
2015-May-15 09:31N 59°20' E 018°05'0 0.0
2015-May-15 08:30N 59°20' E 018°05'0 0.0
2015-May-15 07:33N 59°20' E 018°05'0 0.0
2015-May-15 06:32N 59°20' E 018°05'0 0.0
2015-May-15 05:33N 59°20' E 018°05'0 0.0
2015-May-15 04:29N 59°20' E 018°05'0 0.0
2015-May-15 03:33N 59°20' E 018°05'0 0.0
2015-May-15 02:33N 59°20' E 018°05'0 0.0
2015-May-15 01:33N 59°20' E 018°05'0 0.0
2015-May-15 00:33N 59°20' E 018°05'0 0.0
2015-May-14 23:33N 59°20' E 018°05'0 0.0
2015-May-14 22:33N 59°20' E 018°05'0 0.0
2015-May-14 21:33N 59°20' E 018°05'0 0.0
2015-May-14 20:33N 59°20' E 018°05'0 0.0
2015-May-14 19:33N 59°20' E 018°05'7 6.9
2015-May-14 18:29N 59°23' E 018°18'7 1.6
2015-May-14 14:08N 59°19' E 018°07'1 1.9
2015-May-14 13:33N 59°20' E 018°05'1 0.2
2015-May-14 08:08N 59°19' E 018°07'1 2.2
2015-May-14 07:33N 59°20' E 018°05'0 0.0
2015-May-14 06:33N 59°20' E 018°05'0 0.0
2015-May-14 05:33N 59°20' E 018°05'0 0.0
2015-May-14 04:33N 59°20' E 018°05'0 0.0
2015-May-14 03:33N 59°20' E 018°05'0 0.0
2015-May-14 02:32N 59°20' E 018°05'0 0.0
2015-May-14 01:33N 59°20' E 018°05'0 0.0
2015-May-14 00:32N 59°20' E 018°05'0 0.0
2015-May-13 23:33N 59°20' E 018°05'0 0.0
2015-May-13 22:33N 59°20' E 018°05'0 0.0
2015-May-13 21:33N 59°20' E 018°05'0 0.0
2015-May-13 20:33N 59°20' E 018°05'0 0.1
2015-May-13 15:33N 59°20' E 018°05'7 6.2
2015-May-13 14:29N 59°22' E 018°17'6 1.4
2015-May-13 10:08N 59°19' E 018°07'1 2.3
2015-May-13 09:33N 59°20' E 018°05'0 0.0
2015-May-13 08:30N 59°20' E 018°05'  

Dump ship's entire track history